Time;durP1;ratioP1;P1;durP2;ratioP2;P2;SDS_P1;SDS_P2;PMS_P1;PMS_P2;Temp;Humidity;BMP_temperature;BMP_pressure;BME280_temperature;BME280_humidity;BME280_pressure;Samples;Min_cycle;Max_cycle;Signal;HPM_P1;HPM_P2
2023/01/17 00:01:33;;;;;;;1.00;0.60;;;;;;;2.15;100.00;151919.41;5046899;28;20538;-75
2023/01/17 00:12:14;;;;;;;1.93;0.90;;;;;;;1.88;100.00;151849.97;5049204;28;20472;-77
2023/01/17 00:14:41;;;;;;;2.07;1.13;;;;;;;1.87;100.00;151847.41;5019319;28;20468;-76
2023/01/17 00:17:08;;;;;;;1.63;0.90;;;;;;;1.79;100.00;151828.16;5050971;28;20454;-76
2023/01/17 01:34:31;;;;;;;1.80;1.10;;;;;;;1.61;100.00;151780.59;5007724;28;20448;-76
2023/01/17 01:36:58;;;;;;;1.37;0.90;;;;;;;1.61;100.00;151780.59;5048192;28;20440;-76
2023/01/17 01:39:25;;;;;;;1.70;1.10;;;;;;;1.60;100.00;151778.00;5047847;28;20436;-76
2023/01/17 01:41:51;;;;;;;1.50;0.90;;;;;;;1.61;100.00;151780.59;5042316;28;20456;-76
2023/01/17 01:44:52;;;;;;;1.70;1.10;;;;;;;1.62;100.00;151784.44;5028537;28;20791;-76
2023/01/17 01:47:25;;;;;;;2.57;1.37;;;;;;;1.62;100.00;151783.13;4994827;28;20829;-76
2023/01/17 01:49:52;;;;;;;2.90;1.20;;;;;;;1.59;100.00;151776.72;4998165;28;20461;-76
2023/01/17 01:52:21;;;;;;;2.00;1.30;;;;;;;1.62;100.00;151783.13;4990688;28;21054;-76
2023/01/17 01:54:50;;;;;;;1.80;1.40;;;;;;;1.60;100.00;151779.31;5046146;28;20446;-76
2023/01/17 01:57:20;;;;;;;2.00;1.20;;;;;;;1.58;100.00;151772.88;5031041;28;20464;-76
2023/01/17 01:59:50;;;;;;;1.90;1.30;;;;;;;1.64;100.00;151788.31;5027542;28;20506;-77
2023/01/17 02:02:17;;;;;;;4.17;2.00;;;;;;;1.60;100.00;151778.00;5020131;28;20472;-76
2023/01/17 02:04:46;;;;;;;2.20;1.70;;;;;;;1.58;100.00;151774.19;5047335;28;20454;-76
2023/01/17 02:07:16;;;;;;;2.53;1.80;;;;;;;1.58;100.00;151772.88;5031271;28;20442;-76
2023/01/17 02:09:43;;;;;;;2.07;1.20;;;;;;;1.57;100.00;151770.28;5028348;28;21018;-76
2023/01/17 02:12:10;;;;;;;2.20;1.50;;;;;;;1.60;100.00;151778.00;5036103;28;20566;-77
2023/01/17 02:14:37;;;;;;;2.13;1.50;;;;;;;1.62;100.00;151783.13;5042077;28;20546;-76
2023/01/17 02:17:15;;;;;;;1.70;1.60;;;;;;;1.60;100.00;151779.31;5013527;28;20503;-76
2023/01/17 02:20:21;;;;;;;1.87;1.20;;;;;;;1.60;100.00;151778.00;5039980;28;20833;-76
2023/01/17 02:23:16;;;;;;;1.83;1.27;;;;;;;1.61;100.00;151781.91;5029611;28;20472;-76
2023/01/17 02:26:09;;;;;;;2.07;1.67;;;;;;;1.59;100.00;151775.47;5024698;28;20547;-76
2023/01/17 02:28:47;;;;;;;3.43;1.40;;;;;;;1.61;100.00;151780.59;5034528;28;20481;-76
2023/01/17 02:31:18;;;;;;;3.80;1.63;;;;;;;1.64;100.00;151788.31;5045820;28;20486;-76
2023/01/17 02:33:51;;;;;;;2.00;1.10;;;;;;;1.56;100.00;151767.75;5031635;28;20868;-76
2023/01/17 02:36:22;;;;;;;1.90;1.33;;;;;;;1.58;100.00;151772.88;5034391;28;20456;-76
2023/01/17 02:38:52;;;;;;;1.87;1.13;;;;;;;1.59;100.00;151775.47;5038478;28;20526;-76
2023/01/17 02:41:21;;;;;;;2.50;1.33;;;;;;;1.59;100.00;151775.47;5044711;28;20510;-76
2023/01/17 02:43:49;;;;;;;1.83;1.37;;;;;;;1.59;100.00;151775.47;5045807;28;20816;-76
2023/01/17 02:46:17;;;;;;;2.50;1.90;;;;;;;1.59;100.00;151775.47;5026731;28;20554;-76
2023/01/17 02:48:45;;;;;;;2.10;1.50;;;;;;;1.59;100.00;151776.72;5047982;28;20453;-76
2023/01/17 02:51:38;;;;;;;2.17;1.53;;;;;;;1.60;100.00;151779.31;5058107;28;20522;-76
2023/01/17 02:54:25;;;;;;;1.73;1.33;;;;;;;1.58;100.00;151774.19;5027615;28;20463;-76
2023/01/17 02:56:59;;;;;;;2.10;1.37;;;;;;;1.56;100.00;151767.75;5038403;28;20498;-76
2023/01/17 02:59:35;;;;;;;3.23;2.27;;;;;;;1.53;100.00;151761.34;5044192;28;20450;-76
2023/01/17 03:02:10;;;;;;;4.07;2.40;;;;;;;1.54;100.00;151762.56;5038714;28;20595;-76
2023/01/17 03:04:40;;;;;;;2.40;1.80;;;;;;;1.54;100.00;151762.56;5028515;28;20496;-76
2023/01/17 03:07:11;;;;;;;2.90;2.30;;;;;;;1.55;100.00;151765.16;5044859;28;20948;-76
2023/01/17 03:09:42;;;;;;;2.73;2.30;;;;;;;1.55;100.00;151766.47;5038489;28;20542;-76
2023/01/17 03:12:09;;;;;;;2.20;1.40;;;;;;;1.60;100.00;151778.00;5035102;28;20576;-76
2023/01/17 03:14:36;;;;;;;2.77;1.93;;;;;;;1.58;100.00;151772.88;5033010;28;20458;-76
2023/01/17 03:17:03;;;;;;;4.90;3.10;;;;;;;1.57;100.00;151771.59;5029407;28;20460;-76
2023/01/17 03:19:31;;;;;;;3.67;3.30;;;;;;;1.56;100.00;151769.00;5031028;28;20527;-76
2023/01/17 03:21:57;;;;;;;2.80;2.30;;;;;;;1.57;100.00;151770.28;5041728;28;20445;-76
2023/01/17 03:24:24;;;;;;;1.80;1.40;;;;;;;1.52;100.00;151758.75;5028451;28;20491;-77
2023/01/17 03:26:51;;;;;;;3.60;2.20;;;;;;;1.62;100.00;151783.13;5045448;28;20790;-76
2023/01/17 03:29:17;;;;;;;2.57;1.70;;;;;;;1.58;100.00;151774.19;5044182;28;20976;-76
2023/01/17 03:31:45;;;;;;;2.30;1.90;;;;;;;1.58;100.00;151772.88;5040714;28;20486;-76
2023/01/17 03:34:12;;;;;;;1.90;1.40;;;;;;;1.57;100.00;151771.59;5042172;28;20494;-76
2023/01/17 03:36:40;;;;;;;4.83;1.27;;;;;;;1.55;100.00;151765.16;5046266;28;20942;-76
2023/01/17 03:39:07;;;;;;;2.20;1.40;;;;;;;1.57;100.00;151770.28;5040552;28;20534;-76
2023/01/17 03:41:33;;;;;;;2.70;1.50;;;;;;;1.56;100.00;151767.75;5032332;28;20453;-77
2023/01/17 03:44:00;;;;;;;1.80;1.27;;;;;;;1.54;100.00;151763.88;5041435;28;20458;-76
2023/01/17 03:46:28;;;;;;;2.17;1.57;;;;;;;1.55;100.00;151766.47;5030222;28;20457;-76
2023/01/17 03:48:55;;;;;;;2.03;1.10;;;;;;;1.54;100.00;151762.56;5047638;28;20543;-76
2023/01/17 03:51:22;;;;;;;1.87;1.50;;;;;;;1.53;100.00;151761.34;5032293;28;20459;-77
2023/01/17 03:53:50;;;;;;;1.47;0.93;;;;;;;1.53;100.00;151761.34;5043417;28;20781;-76
2023/01/17 03:56:18;;;;;;;2.50;1.63;;;;;;;1.46;100.00;151742.00;5045508;28;20444;-76
2023/01/17 03:58:44;;;;;;;2.20;1.63;;;;;;;1.47;100.00;151745.91;5027755;28;20492;-76
2023/01/17 04:01:12;;;;;;;2.70;1.90;;;;;;;1.43;100.00;151734.34;5043551;28;20554;-76
2023/01/17 04:03:38;;;;;;;3.17;1.87;;;;;;;1.39;100.00;151725.34;5029616;28;20457;-77
2023/01/17 04:06:06;;;;;;;3.30;1.50;;;;;;;1.41;100.00;151729.16;5039950;28;20457;-76
2023/01/17 04:08:32;;;;;;;3.10;1.77;;;;;;;1.43;100.00;151734.34;5043119;28;20457;-76
2023/01/17 04:11:00;;;;;;;1.53;1.07;;;;;;;1.41;100.00;151730.47;5040523;28;20450;-76
2023/01/17 04:13:27;;;;;;;2.20;1.50;;;;;;;1.37;100.00;151718.91;5029742;28;20914;-76
2023/01/17 04:15:54;;;;;;;2.27;1.73;;;;;;;1.38;100.00;151722.75;5024099;28;20555;-77
2023/01/17 04:18:21;;;;;;;1.40;1.10;;;;;;;1.43;100.00;151735.59;5026298;28;20527;-76
2023/01/17 04:20:49;;;;;;;2.20;1.43;;;;;;;1.44;100.00;151736.88;5023023;28;20458;-76
2023/01/17 04:23:16;;;;;;;2.60;1.83;;;;;;;1.41;100.00;151730.47;5031305;28;20432;-76
2023/01/17 04:25:43;;;;;;;2.13;1.60;;;;;;;1.39;100.00;151724.03;5019773;28;20458;-76
2023/01/17 04:28:11;;;;;;;2.07;1.77;;;;;;;1.35;100.00;151715.03;5025535;28;20450;-76
2023/01/17 04:30:38;;;;;;;2.80;2.03;;;;;;;1.33;100.00;151708.63;5026616;28;20739;-76
2023/01/17 04:33:05;;;;;;;2.13;1.30;;;;;;;1.31;100.00;151703.50;5026305;28;20889;-76
2023/01/17 04:35:32;;;;;;;2.17;1.40;;;;;;;1.32;100.00;151706.06;5023033;28;20488;-76
2023/01/17 04:37:59;;;;;;;2.57;1.47;;;;;;;1.32;100.00;151707.38;5045614;28;20461;-76
2023/01/17 04:40:26;;;;;;;1.67;1.17;;;;;;;1.33;100.00;151709.91;5033150;28;20447;-76
2023/01/17 04:42:53;;;;;;;1.80;1.40;;;;;;;1.34;100.00;151711.19;5022043;28;20807;-76
2023/01/17 04:45:22;;;;;;;1.90;1.50;;;;;;;1.34;100.00;151711.19;5048249;28;20530;-76
2023/01/17 04:47:48;;;;;;;2.57;1.50;;;;;;;1.35;100.00;151713.78;5032319;28;20440;-76
2023/01/17 04:50:15;;;;;;;1.97;1.40;;;;;;;1.35;100.00;151713.78;5046725;28;20450;-76
2023/01/17 04:52:42;;;;;;;2.60;1.50;;;;;;;1.35;100.00;151713.78;5022010;28;20480;-76
2023/01/17 04:55:09;;;;;;;3.13;1.57;;;;;;;1.36;100.00;151717.63;5028888;28;20468;-76
2023/01/17 04:57:36;;;;;;;2.90;1.70;;;;;;;1.36;100.00;151717.63;5034354;28;20510;-76
2023/01/17 05:00:03;;;;;;;2.40;1.67;;;;;;;1.36;100.00;151716.31;5046457;28;20539;-76
2023/01/17 05:02:32;;;;;;;2.07;1.40;;;;;;;1.38;100.00;151722.75;5044802;28;20452;-76
2023/01/17 05:04:58;;;;;;;2.67;1.50;;;;;;;1.40;100.00;151726.63;5033294;28;20461;-76
2023/01/17 05:07:25;;;;;;;1.80;1.20;;;;;;;1.40;100.00;151726.63;5044740;28;20474;-76
2023/01/17 05:09:52;;;;;;;2.30;1.50;;;;;;;1.38;100.00;151721.50;5045778;28;20544;-76
2023/01/17 05:12:18;;;;;;;2.70;1.53;;;;;;;1.36;100.00;151717.63;5043680;28;20503;-75
2023/01/17 05:14:45;;;;;;;2.77;1.60;;;;;;;1.33;100.00;151708.63;5044895;28;20451;-76
2023/01/17 05:17:11;;;;;;;4.33;1.57;;;;;;;1.32;100.00;151706.06;5039684;28;20445;-76
2023/01/17 05:19:40;;;;;;;3.17;1.73;;;;;;;1.30;100.00;151700.94;5039286;28;21891;-76
2023/01/17 05:22:13;;;;;;;2.00;1.53;;;;;;;1.30;100.00;151700.94;5047210;28;20476;-76
2023/01/17 05:24:41;;;;;;;2.10;1.90;;;;;;;1.33;100.00;151708.63;5027285;28;20442;-76
2023/01/17 05:27:08;;;;;;;2.23;1.60;;;;;;;1.31;100.00;151703.50;5033477;28;20452;-76
2023/01/17 05:29:34;;;;;;;2.43;2.00;;;;;;;1.34;100.00;151711.19;5028992;28;20482;-76
2023/01/17 05:32:01;;;;;;;2.03;1.80;;;;;;;1.33;100.00;151709.91;5033239;28;20982;-76
2023/01/17 05:34:28;;;;;;;2.40;2.00;;;;;;;1.31;100.00;151703.50;5026819;28;20542;-76
2023/01/17 05:36:56;;;;;;;2.10;1.67;;;;;;;1.31;100.00;151703.50;5037054;28;20464;-76
2023/01/17 05:39:23;;;;;;;2.40;1.70;;;;;;;1.32;100.00;151707.38;5043062;28;20460;-76
2023/01/17 05:41:49;;;;;;;3.40;2.07;;;;;;;1.32;100.00;151706.06;5029380;28;20821;-77
2023/01/17 05:44:16;;;;;;;2.50;1.70;;;;;;;1.33;100.00;151708.63;5040670;28;20442;-76
2023/01/17 05:46:43;;;;;;;2.47;1.90;;;;;;;1.30;100.00;151702.19;5025361;28;20456;-76
2023/01/17 05:49:09;;;;;;;2.60;1.90;;;;;;;1.30;100.00;151702.19;5050416;28;20458;-76
2023/01/17 05:51:38;;;;;;;2.57;1.93;;;;;;;1.30;100.00;151700.94;5041416;28;20484;-76
2023/01/17 05:54:12;;;;;;;3.10;1.60;;;;;;;1.27;100.00;151693.22;5043344;28;20464;-76
2023/01/17 05:56:39;;;;;;;2.93;2.00;;;;;;;1.27;100.00;151693.22;5021303;28;20553;-76
2023/01/17 05:59:06;;;;;;;4.13;1.80;;;;;;;1.22;100.00;151682.94;5048054;28;20440;-76
2023/01/17 06:01:35;;;;;;;3.20;1.93;;;;;;;1.19;100.00;151675.22;5014428;28;20963;-76
2023/01/17 06:04:01;;;;;;;2.30;1.90;;;;;;;1.18;100.00;151671.38;5056955;28;20974;-76
2023/01/17 06:06:29;;;;;;;2.33;1.63;;;;;;;1.17;100.00;151668.78;5054550;28;20450;-76
2023/01/17 06:08:56;;;;;;;2.80;2.20;;;;;;;1.15;100.00;151664.97;5043699;28;20464;-76
2023/01/17 06:11:24;;;;;;;3.60;3.00;;;;;;;1.12;100.00;151657.25;5044908;28;20942;-76
2023/01/17 06:13:51;;;;;;;1.97;1.77;;;;;;;1.08;100.00;151647.00;5060266;28;20482;-76
2023/01/17 06:16:17;;;;;;;1.90;1.60;;;;;;;1.07;100.00;151644.41;5038868;28;20465;-77
2023/01/17 06:18:44;;;;;;;2.57;2.27;;;;;;;1.08;100.00;151647.00;5049918;28;20459;-76
2023/01/17 06:21:11;;;;;;;3.10;2.33;;;;;;;1.04;100.00;151636.69;5061737;28;20454;-77
2023/01/17 06:23:38;;;;;;;2.70;2.00;;;;;;;1.02;100.00;151630.28;5041955;28;20809;-76
2023/01/17 06:26:07;;;;;;;2.73;2.27;;;;;;;1.01;100.00;151628.97;5051090;28;20455;-76
2023/01/17 06:28:35;;;;;;;2.83;2.30;;;;;;;0.98;100.00;151621.28;5037822;28;20483;-76
2023/01/17 06:31:07;;;;;;;2.80;2.37;;;;;;;0.96;100.00;151616.16;5047551;28;20450;-77
2023/01/17 06:33:36;;;;;;;3.20;2.30;;;;;;;0.93;100.00;151608.44;5035183;28;20483;-76
2023/01/17 06:36:04;;;;;;;2.87;2.20;;;;;;;0.90;100.00;151600.72;5061924;28;20534;-76
2023/01/17 06:38:31;;;;;;;4.13;2.30;;;;;;;0.89;100.00;151598.19;5021452;28;20556;-76
2023/01/17 06:40:59;;;;;;;3.97;3.00;;;;;;;0.90;100.00;151599.47;5037648;28;20449;-76
2023/01/17 06:43:32;;;;;;;3.20;2.40;;;;;;;0.89;100.00;151598.19;5057154;28;20808;-77
2023/01/17 06:46:00;;;;;;;2.90;2.63;;;;;;;0.86;100.00;151590.47;5054848;28;20955;-77
2023/01/17 06:48:27;;;;;;;3.40;2.80;;;;;;;0.84;100.00;151585.34;5045050;28;20534;-77
2023/01/17 06:50:54;;;;;;;3.60;2.53;;;;;;;0.84;100.00;151585.34;5034477;28;20451;-76
2023/01/17 06:53:20;;;;;;;5.80;2.83;;;;;;;0.85;100.00;151587.88;5057624;28;20788;-76
2023/01/17 06:55:51;;;;;;;4.03;2.80;;;;;;;0.82;100.00;151580.16;5049828;28;20462;-77
2023/01/17 06:58:18;;;;;;;2.57;2.27;;;;;;;0.85;100.00;151587.88;5062679;28;20515;-76
2023/01/17 07:00:44;;;;;;;3.23;2.77;;;;;;;0.86;100.00;151590.47;5054981;28;20537;-76
2023/01/17 07:03:19;;;;;;;3.63;2.90;;;;;;;0.89;100.00;151598.19;5040440;28;20445;-76
2023/01/17 07:05:46;;;;;;;3.13;2.30;;;;;;;0.88;100.00;151595.59;5056567;28;20473;-77
2023/01/17 07:08:15;;;;;;;3.10;2.57;;;;;;;0.88;100.00;151594.31;5051017;28;20459;-77
2023/01/17 07:10:43;;;;;;;3.20;2.70;;;;;;;0.88;100.00;151595.59;5002558;28;20450;-77
2023/01/17 07:13:16;;;;;;;3.30;2.70;;;;;;;0.88;100.00;151594.31;5061220;28;20479;-76
2023/01/17 07:15:45;;;;;;;2.77;2.17;;;;;;;0.91;100.00;151602.00;5041198;28;20459;-77
2023/01/17 07:18:12;;;;;;;3.07;2.33;;;;;;;0.94;100.00;151609.72;5042192;28;20554;-76
2023/01/17 07:20:42;;;;;;;3.10;2.50;;;;;;;0.99;100.00;151623.84;5053844;28;20438;-77
2023/01/17 07:23:09;;;;;;;2.40;1.90;;;;;;;1.00;100.00;151625.16;5044282;28;20985;-76
2023/01/17 07:25:36;;;;;;;2.33;2.13;;;;;;;1.03;100.00;151632.88;5035437;28;21003;-76
2023/01/17 07:28:03;;;;;;;2.70;2.20;;;;;;;1.03;100.00;151632.88;5046255;28;20510;-76
2023/01/17 07:30:29;;;;;;;2.37;2.17;;;;;;;1.03;100.00;151634.09;5039928;28;20785;-76
2023/01/17 07:32:56;;;;;;;4.43;2.93;;;;;;;1.07;100.00;151644.41;5052924;28;20470;-76
2023/01/17 07:35:25;;;;;;;3.13;2.83;;;;;;;1.11;100.00;151654.66;5030364;28;20466;-76
2023/01/17 07:37:54;;;;;;;4.00;3.07;;;;;;;1.14;100.00;151662.38;5037264;28;20482;-76
2023/01/17 07:40:22;;;;;;;6.77;3.30;;;;;;;1.16;100.00;151667.56;5047333;28;20497;-76
2023/01/17 07:42:48;;;;;;;3.70;3.33;;;;;;;1.23;100.00;151684.22;5045413;28;20995;-76
2023/01/17 07:45:16;;;;;;;6.43;3.53;;;;;;;1.45;100.00;151740.78;5028047;28;20470;-76
2023/01/17 07:47:43;;;;;;;3.47;2.60;;;;;;;1.47;100.00;151744.59;5050686;28;20834;-76
2023/01/17 07:50:12;;;;;;;4.93;3.00;;;;;;;1.51;100.00;151754.91;5045937;28;21112;-76
2023/01/17 07:52:39;;;;;;;3.87;2.93;;;;;;;1.51;100.00;151756.16;5017885;28;23299;-76
2023/01/17 07:55:08;;;;;;;3.57;2.50;;;;;;;1.50;100.00;151752.31;5031275;28;20819;-76
2023/01/17 07:57:35;;;;;;;3.97;3.00;;;;;;;1.47;100.00;151744.59;5054334;28;20445;-76
2023/01/17 08:00:03;;;;;;;4.77;3.20;;;;;;;1.41;100.00;151729.16;5050295;28;20499;-76
2023/01/17 08:02:39;;;;;;;8.73;3.87;;;;;;;1.35;100.00;151715.03;5037880;28;20447;-76
2023/01/17 08:05:06;;;;;;;3.60;2.63;;;;;;;1.30;100.00;151702.19;5034471;28;21387;-76
2023/01/17 08:07:32;;;;;;;3.67;3.00;;;;;;;1.28;100.00;151697.06;5052159;28;21096;-76
2023/01/17 08:10:00;;;;;;;3.93;3.17;;;;;;;1.26;100.00;151691.94;5035088;28;20454;-77
2023/01/17 08:12:28;;;;;;;6.97;3.40;;;;;;;1.26;100.00;151690.66;5051375;28;20458;-77
2023/01/17 08:14:55;;;;;;;3.30;3.00;;;;;;;1.28;100.00;151695.78;5042869;28;20477;-76
2023/01/17 08:17:21;;;;;;;4.03;2.83;;;;;;;1.27;100.00;151693.22;5042884;28;20529;-76
2023/01/17 08:19:50;;;;;;;3.87;2.93;;;;;;;1.30;100.00;151700.94;5061632;28;20641;-76
2023/01/17 08:22:17;;;;;;;3.77;3.37;;;;;;;1.32;100.00;151707.38;5060496;28;20545;-76
2023/01/17 08:24:44;;;;;;;4.30;3.60;;;;;;;1.39;100.00;151725.34;5063700;28;20504;-76
2023/01/17 08:27:11;;;;;;;6.33;3.93;;;;;;;1.40;100.00;151727.94;5026266;28;20789;-76
2023/01/17 08:29:41;;;;;;;4.17;3.60;;;;;;;1.45;100.00;151740.78;5063547;28;20477;-76
2023/01/17 08:32:08;;;;;;;5.40;3.23;;;;;;;1.48;100.00;151747.19;5060363;28;20471;-77
2023/01/17 08:34:35;;;;;;;5.83;3.50;;;;;;;1.51;100.00;151754.91;5037815;28;20556;-76
2023/01/17 08:37:01;;;;;;;3.53;3.23;;;;;;;1.59;100.00;151775.47;5062989;28;20492;-76
2023/01/17 08:39:28;;;;;;;5.93;3.50;;;;;;;1.66;100.00;151794.75;5048853;28;20547;-76
2023/01/17 08:41:56;;;;;;;6.53;4.20;;;;;;;1.73;100.00;151811.41;5045225;28;20446;-76
2023/01/17 08:44:23;;;;;;;7.40;5.20;;;;;;;1.80;100.00;151829.44;5063291;28;20444;-76
2023/01/17 08:46:51;;;;;;;11.10;6.80;;;;;;;1.79;100.00;151828.16;5064520;28;20459;-77
2023/01/17 08:49:17;;;;;;;10.93;8.30;;;;;;;1.81;100.00;151832.00;5027848;28;20554;-76
2023/01/17 08:51:44;;;;;;;6.10;5.50;;;;;;;1.89;100.00;151851.25;5032056;28;20451;-76
2023/01/17 08:54:13;;;;;;;11.77;6.60;;;;;;;1.94;100.00;151865.41;5063103;28;20856;-76
2023/01/17 08:56:41;;;;;;;6.30;4.73;;;;;;;1.97;100.00;151873.13;5060142;28;20539;-76
2023/01/17 08:59:10;;;;;;;5.73;3.70;;;;;;;2.01;100.00;151882.13;5061581;28;20457;-76
2023/01/17 09:01:39;;;;;;;6.50;3.80;;;;;;;2.05;100.00;151893.69;5048781;28;20543;-76
2023/01/17 09:04:07;;;;;;;4.10;3.70;;;;;;;2.09;100.00;151903.94;5023114;28;21672;-76
2023/01/17 09:06:36;;;;;;;4.53;3.00;;;;;;;2.18;100.00;151925.81;5023192;28;20459;-76
2023/01/17 09:09:04;;;;;;;4.30;3.03;;;;;;;2.21;100.00;151933.53;5058687;28;20444;-76
2023/01/17 09:11:31;;;;;;;3.33;3.03;;;;;;;2.19;100.00;151928.41;5059041;28;20828;-76
2023/01/17 09:13:58;;;;;;;4.30;3.13;;;;;;;2.22;99.71;151937.44;5062919;28;20571;-76
2023/01/17 09:16:24;;;;;;;4.00;3.60;;;;;;;2.10;100.00;151906.53;5054780;28;20464;-76
2023/01/17 09:18:53;;;;;;;5.43;3.37;;;;;;;2.09;100.00;151902.72;5039287;28;20454;-76
2023/01/17 09:21:21;;;;;;;4.00;3.60;;;;;;;2.14;100.00;151916.84;5064173;28;20451;-76
2023/01/17 09:23:48;;;;;;;5.80;2.90;;;;;;;2.45;98.17;151996.56;5061122;28;20446;-75
2023/01/17 09:26:18;;;;;;;3.30;2.70;;;;;;;2.41;97.83;151984.97;5052300;28;20443;-76
2023/01/17 09:28:45;;;;;;;3.10;2.73;;;;;;;2.35;95.56;151970.84;5062152;28;20507;-75
2023/01/17 09:31:12;;;;;;;4.00;2.83;;;;;;;2.46;95.09;151999.09;5005120;28;20956;-75
2023/01/17 09:33:40;;;;;;;4.50;2.90;;;;;;;2.36;94.02;151973.41;5062744;28;20470;-76
2023/01/17 09:36:07;;;;;;;4.00;2.57;;;;;;;2.42;94.84;151988.84;5004316;28;20455;-76
2023/01/17 09:38:36;;;;;;;3.37;2.53;;;;;;;2.32;94.41;151963.13;5047197;28;20449;-75
2023/01/17 09:41:03;;;;;;;4.67;2.90;;;;;;;2.37;93.27;151974.69;5022230;28;20518;-75
2023/01/17 09:43:38;;;;;;;4.63;3.27;;;;;;;2.41;94.51;151984.97;5043671;28;21045;-76
2023/01/17 09:46:06;;;;;;;3.53;2.43;;;;;;;2.31;92.03;151959.25;5061710;28;20464;-76
2023/01/17 09:48:36;;;;;;;2.93;2.63;;;;;;;2.30;92.93;151957.94;5062209;28;20452;-76
2023/01/17 09:51:06;;;;;;;4.67;2.57;;;;;;;2.36;91.88;151973.41;5062025;28;20557;-76
2023/01/17 09:53:37;;;;;;;9.13;3.10;;;;;;;2.34;92.78;151968.25;5058078;28;20474;-75
2023/01/17 09:56:07;;;;;;;2.90;2.60;;;;;;;2.40;92.84;151983.72;5061862;28;20447;-76
2023/01/17 09:58:39;;;;;;;3.63;3.13;;;;;;;2.47;92.58;152001.69;5055292;28;20463;-76
2023/01/17 10:01:13;;;;;;;4.47;3.13;;;;;;;2.49;93.24;152004.28;5061223;28;20517;-76
2023/01/17 10:03:50;;;;;;;4.50;3.10;;;;;;;2.43;91.24;151990.13;5057579;28;20481;-76
2023/01/17 10:06:24;;;;;;;3.13;2.80;;;;;;;2.44;94.11;151993.97;5062719;28;20840;-76
2023/01/17 10:09:09;;;;;;;3.50;2.87;;;;;;;2.34;93.43;151966.97;5044822;28;20448;-75
2023/01/17 10:11:46;;;;;;;3.20;2.73;;;;;;;2.43;95.18;151990.13;5054129;28;20485;-76
2023/01/17 10:14:22;;;;;;;4.60;2.60;;;;;;;2.63;92.76;152040.25;5060855;28;20481;-76
2023/01/17 10:16:55;;;;;;;3.17;2.03;;;;;;;2.42;86.95;151987.53;5002895;28;20455;-76
2023/01/17 10:19:32;;;;;;;3.43;2.00;;;;;;;2.65;86.62;152045.44;5045647;28;20498;-77
2023/01/17 10:22:06;;;;;;;3.23;2.40;;;;;;;2.53;86.03;152015.84;5044765;28;20444;-77
2023/01/17 10:25:07;;;;;;;3.70;1.90;;;;;;;2.61;86.69;152036.44;5046186;28;20485;-77
2023/01/17 10:27:37;;;;;;;2.77;2.03;;;;;;;2.61;84.15;152035.13;5061840;28;20550;-77
2023/01/17 10:30:15;;;;;;;2.40;1.50;;;;;;;2.67;87.58;152050.56;5033316;28;20924;-78
2023/01/17 10:32:47;;;;;;;4.00;1.80;;;;;;;2.64;85.32;152042.84;5061035;28;20451;-77
2023/01/17 10:35:20;;;;;;;2.50;1.50;;;;;;;2.76;84.18;152075.00;5059308;28;20519;-77
2023/01/17 10:37:47;;;;;;;4.63;1.30;;;;;;;2.88;84.21;152104.59;5020265;28;21156;-77
2023/01/17 10:40:19;;;;;;;2.00;1.30;;;;;;;2.81;82.81;152086.56;5060202;28;20447;-77
2023/01/17 10:42:49;;;;;;;2.60;1.50;;;;;;;2.94;81.80;152120.00;5044391;28;20474;-77
2023/01/17 10:45:19;;;;;;;1.90;1.37;;;;;;;2.96;78.93;152125.19;5045375;28;20451;-77
2023/01/17 10:47:51;;;;;;;1.50;1.20;;;;;;;2.90;79.46;152109.75;5041943;28;20500;-77
2023/01/17 10:50:18;;;;;;;2.33;0.90;;;;;;;2.91;77.46;152113.56;5060634;28;20776;-77
2023/01/17 10:52:51;;;;;;;2.10;1.40;;;;;;;2.84;77.74;152094.28;5044333;28;20458;-77
2023/01/17 10:55:27;;;;;;;1.93;1.00;;;;;;;2.92;75.83;152114.88;5061220;28;20568;-77
2023/01/17 10:57:54;;;;;;;1.37;1.10;;;;;;;3.04;75.42;152147.03;5057361;28;20447;-77
2023/01/17 11:00:37;;;;;;;1.83;0.80;;;;;;;3.02;74.25;152140.59;5060173;28;20463;-77
2023/01/17 11:03:04;;;;;;;5.40;1.70;;;;;;;3.04;74.55;152145.78;5060895;28;20455;-77
2023/01/17 11:05:32;;;;;;;2.33;1.73;;;;;;;3.06;75.16;152150.91;5058088;28;20478;-77
2023/01/17 11:08:01;;;;;;;1.37;0.97;;;;;;;3.26;75.81;152202.38;5035728;28;20753;-77
2023/01/17 11:10:41;;;;;;;1.40;0.93;;;;;;;3.28;73.22;152206.25;5045546;28;20828;-77
2023/01/17 11:13:24;;;;;;;2.03;1.13;;;;;;;3.22;71.04;152190.81;5057738;28;20449;-77
2023/01/17 11:15:56;;;;;;;4.40;3.10;;;;;;;3.18;71.62;152181.78;5058367;28;20525;-77
2023/01/17 11:18:26;;;;;;;11.83;7.07;;;;;;;3.09;71.95;152158.66;5046407;28;20917;-77
2023/01/17 11:20:53;;;;;;;6.40;3.60;;;;;;;3.27;73.78;152203.66;5059391;28;20706;-77
2023/01/17 11:23:21;;;;;;;2.10;1.73;;;;;;;3.34;70.44;152221.66;5060167;28;20459;-77
2023/01/17 11:25:51;;;;;;;3.07;2.73;;;;;;;3.17;70.62;152179.22;5055616;28;20792;-77
2023/01/17 11:28:24;;;;;;;1.73;0.90;;;;;;;3.14;70.17;152171.50;5044565;28;20490;-77
2023/01/17 11:30:54;;;;;;;2.30;1.30;;;;;;;3.21;70.91;152189.50;5045574;28;20455;-77
2023/01/17 11:33:44;;;;;;;2.17;1.27;;;;;;;3.18;72.68;152180.53;5057477;28;20460;-77
2023/01/17 11:36:21;;;;;;;1.20;0.63;;;;;;;3.26;67.35;152202.38;5061371;28;20542;-77
2023/01/17 11:38:56;;;;;;;1.07;0.73;;;;;;;3.34;69.96;152222.97;5059096;28;20449;-77
2023/01/17 11:41:26;;;;;;;1.50;1.10;;;;;;;3.33;69.58;152220.41;5034014;28;20461;-77
2023/01/17 11:43:54;;;;;;;1.93;1.03;;;;;;;3.39;70.82;152235.81;5054550;28;20443;-77
2023/01/17 11:46:22;;;;;;;1.07;0.87;;;;;;;3.33;69.15;152220.41;5047317;28;20458;-77
2023/01/17 11:48:51;;;;;;;1.10;0.60;;;;;;;3.36;69.43;152228.09;5049241;28;20515;-78
2023/01/17 11:51:21;;;;;;;1.17;0.70;;;;;;;3.32;68.98;152217.81;5046825;28;20450;-77
2023/01/17 11:53:48;;;;;;;1.07;0.87;;;;;;;3.32;70.58;152217.81;5048221;28;21020;-77
2023/01/17 11:56:21;;;;;;;1.50;1.10;;;;;;;3.38;69.69;152233.28;5047820;28;20495;-77
2023/01/17 11:58:50;;;;;;;2.40;0.83;;;;;;;3.34;69.18;152221.66;5037430;28;20479;-76
2023/01/17 12:01:33;;;;;;;1.50;1.00;;;;;;;3.41;68.25;152239.72;5046621;28;20528;-76
2023/01/17 12:04:24;;;;;;;1.00;0.60;;;;;;;3.32;68.03;152217.81;5048139;28;20444;-76
2023/01/17 12:07:02;;;;;;;1.83;0.80;;;;;;;3.22;69.13;152192.09;5037366;28;20465;-77
2023/01/17 12:09:36;;;;;;;2.17;1.10;;;;;;;3.29;69.03;152208.81;5060586;28;20470;-77
2023/01/17 12:15:01;;;;;;;2.70;1.00;;;;;;;3.28;68.39;152207.56;5065159;28;20470;-77
2023/01/17 12:17:39;;;;;;;2.70;1.20;;;;;;;3.25;68.10;152198.53;5062401;28;20588;-77
2023/01/17 12:20:15;;;;;;;1.37;0.80;;;;;;;3.20;68.67;152186.97;5060611;28;21071;-77
2023/01/17 12:23:07;;;;;;;1.50;1.23;;;;;;;3.20;68.27;152185.66;5038672;28;21004;-77
2023/01/17 12:25:48;;;;;;;1.40;0.87;;;;;;;3.33;68.81;152219.13;5064925;28;20452;-77
2023/01/17 12:28:32;;;;;;;1.10;0.70;;;;;;;3.26;68.71;152202.38;5054985;28;20471;-77
2023/01/17 12:31:10;;;;;;;1.23;0.70;;;;;;;3.22;69.36;152192.09;5063643;28;20458;-77
2023/01/17 12:33:45;;;;;;;1.13;0.80;;;;;;;3.16;68.33;152176.66;5061420;28;20473;-77
2023/01/17 12:36:19;;;;;;;1.50;1.00;;;;;;;3.21;69.07;152188.22;5045386;28;20751;-77
2023/01/17 12:38:47;;;;;;;1.10;0.77;;;;;;;3.28;67.86;152207.56;5062086;28;20441;-77
2023/01/17 12:41:17;;;;;;;1.20;0.70;;;;;;;3.12;66.81;152166.38;5063406;28;20893;-77
2023/01/17 12:43:45;;;;;;;2.60;0.80;;;;;;;3.16;68.41;152175.34;5042316;28;20575;-77
2023/01/17 12:46:19;;;;;;;5.03;1.03;;;;;;;3.25;70.03;152198.53;5058753;28;20477;-77
2023/01/17 12:48:49;;;;;;;1.00;0.60;;;;;;;3.20;70.31;152186.97;5022585;28;20446;-77
2023/01/17 12:51:19;;;;;;;1.93;1.30;;;;;;;3.16;70.75;152176.66;5061952;28;20501;-77
2023/01/17 12:53:50;;;;;;;1.40;0.90;;;;;;;3.19;71.53;152184.38;5041340;28;20543;-77
2023/01/17 12:56:23;;;;;;;1.60;1.13;;;;;;;3.32;71.36;152217.81;5039328;28;20471;-77
2023/01/17 12:58:52;;;;;;;3.40;0.90;;;;;;;3.28;71.39;152207.56;5041526;28;20534;-77
2023/01/17 13:01:24;;;;;;;0.90;0.63;;;;;;;3.41;69.97;152241.00;5063010;28;20974;-77
2023/01/17 13:03:59;;;;;;;1.60;0.83;;;;;;;3.23;69.38;152194.63;5042217;28;20480;-77
2023/01/17 13:06:42;;;;;;;0.80;0.57;;;;;;;3.31;69.78;152215.22;5042595;28;20450;-77